sensor_id;sensor_type;location;lat;lon;timestamp;P1;durP1;ratioP1;P2;durP2;ratioP2
49592;SDS011;35499;51.482;4.264;2023-05-07T00:01:30;15.37;;;9.63;;
49592;SDS011;35499;51.482;4.264;2023-05-07T00:03:56;13.48;;;9.65;;
49592;SDS011;35499;51.482;4.264;2023-05-07T00:06:21;16.13;;;10.73;;
49592;SDS011;35499;51.482;4.264;2023-05-07T00:08:47;14.43;;;10.13;;
49592;SDS011;35499;51.482;4.264;2023-05-07T00:11:13;13.88;;;10.73;;
49592;SDS011;35499;51.482;4.264;2023-05-07T00:13:38;14.98;;;10.40;;
49592;SDS011;35499;51.482;4.264;2023-05-07T00:16:04;15.60;;;9.68;;
49592;SDS011;35499;51.482;4.264;2023-05-07T00:18:29;18.02;;;10.85;;
49592;SDS011;35499;51.482;4.264;2023-05-07T00:20:55;15.05;;;9.98;;
49592;SDS011;35499;51.482;4.264;2023-05-07T00:23:21;18.63;;;10.48;;
49592;SDS011;35499;51.482;4.264;2023-05-07T00:25:46;15.63;;;10.53;;
49592;SDS011;35499;51.482;4.264;2023-05-07T00:28:11;18.10;;;11.17;;
49592;SDS011;35499;51.482;4.264;2023-05-07T00:30:36;17.17;;;10.23;;
49592;SDS011;35499;51.482;4.264;2023-05-07T00:33:02;14.50;;;9.97;;
49592;SDS011;35499;51.482;4.264;2023-05-07T00:35:28;18.73;;;9.80;;
49592;SDS011;35499;51.482;4.264;2023-05-07T00:40:20;15.15;;;9.50;;
49592;SDS011;35499;51.482;4.264;2023-05-07T00:42:45;16.25;;;10.05;;
49592;SDS011;35499;51.482;4.264;2023-05-07T00:45:12;17.20;;;10.15;;
49592;SDS011;35499;51.482;4.264;2023-05-07T00:47:38;16.25;;;10.70;;
49592;SDS011;35499;51.482;4.264;2023-05-07T00:50:04;15.25;;;11.05;;
49592;SDS011;35499;51.482;4.264;2023-05-07T00:52:30;15.55;;;10.05;;
49592;SDS011;35499;51.482;4.264;2023-05-07T00:54:55;15.80;;;11.00;;
49592;SDS011;35499;51.482;4.264;2023-05-07T00:57:21;16.85;;;10.20;;
49592;SDS011;35499;51.482;4.264;2023-05-07T00:59:48;16.10;;;10.02;;
49592;SDS011;35499;51.482;4.264;2023-05-07T01:02:13;16.65;;;11.07;;
49592;SDS011;35499;51.482;4.264;2023-05-07T01:04:38;14.97;;;10.70;;
49592;SDS011;35499;51.482;4.264;2023-05-07T01:07:04;14.57;;;8.70;;
49592;SDS011;35499;51.482;4.264;2023-05-07T01:09:30;14.35;;;9.10;;
49592;SDS011;35499;51.482;4.264;2023-05-07T01:11:56;14.05;;;9.77;;
49592;SDS011;35499;51.482;4.264;2023-05-07T01:16:48;12.27;;;9.47;;
49592;SDS011;35499;51.482;4.264;2023-05-07T01:19:16;16.08;;;10.27;;
49592;SDS011;35499;51.482;4.264;2023-05-07T01:21:44;15.65;;;8.73;;
49592;SDS011;35499;51.482;4.264;2023-05-07T01:24:11;13.73;;;10.23;;
49592;SDS011;35499;51.482;4.264;2023-05-07T01:26:37;14.40;;;9.90;;
49592;SDS011;35499;51.482;4.264;2023-05-07T01:29:05;13.23;;;9.15;;
49592;SDS011;35499;51.482;4.264;2023-05-07T01:31:30;17.85;;;10.82;;
49592;SDS011;35499;51.482;4.264;2023-05-07T01:33:57;13.30;;;10.50;;
49592;SDS011;35499;51.482;4.264;2023-05-07T01:36:24;17.23;;;11.25;;
49592;SDS011;35499;51.482;4.264;2023-05-07T01:38:52;15.90;;;10.57;;
49592;SDS011;35499;51.482;4.264;2023-05-07T01:41:18;13.45;;;9.85;;
49592;SDS011;35499;51.482;4.264;2023-05-07T01:46:10;14.32;;;10.40;;
49592;SDS011;35499;51.482;4.264;2023-05-07T01:51:02;15.98;;;9.93;;
49592;SDS011;35499;51.482;4.264;2023-05-07T01:53:28;16.95;;;11.02;;
49592;SDS011;35499;51.482;4.264;2023-05-07T01:55:53;16.63;;;10.83;;
49592;SDS011;35499;51.482;4.264;2023-05-07T01:58:19;14.85;;;10.65;;
49592;SDS011;35499;51.482;4.264;2023-05-07T02:00:44;14.87;;;9.83;;
49592;SDS011;35499;51.482;4.264;2023-05-07T02:03:10;17.40;;;10.63;;
49592;SDS011;35499;51.482;4.264;2023-05-07T02:05:35;14.10;;;9.30;;
49592;SDS011;35499;51.482;4.264;2023-05-07T02:08:00;13.38;;;9.75;;
49592;SDS011;35499;51.482;4.264;2023-05-07T02:10:26;15.00;;;10.53;;
49592;SDS011;35499;51.482;4.264;2023-05-07T02:12:51;15.07;;;8.97;;
49592;SDS011;35499;51.482;4.264;2023-05-07T02:15:16;15.00;;;10.73;;
49592;SDS011;35499;51.482;4.264;2023-05-07T02:20:28;14.80;;;10.38;;
49592;SDS011;35499;51.482;4.264;2023-05-07T02:22:53;17.73;;;10.65;;
49592;SDS011;35499;51.482;4.264;2023-05-07T02:25:19;15.05;;;10.85;;
49592;SDS011;35499;51.482;4.264;2023-05-07T02:27:44;14.97;;;9.43;;
49592;SDS011;35499;51.482;4.264;2023-05-07T02:30:09;16.17;;;10.17;;
49592;SDS011;35499;51.482;4.264;2023-05-07T02:32:35;14.98;;;9.05;;
49592;SDS011;35499;51.482;4.264;2023-05-07T02:35:00;14.77;;;8.63;;
49592;SDS011;35499;51.482;4.264;2023-05-07T02:37:26;15.90;;;10.27;;
49592;SDS011;35499;51.482;4.264;2023-05-07T02:39:51;15.35;;;9.75;;
49592;SDS011;35499;51.482;4.264;2023-05-07T02:42:16;15.33;;;10.97;;
49592;SDS011;35499;51.482;4.264;2023-05-07T02:44:41;14.67;;;10.57;;
49592;SDS011;35499;51.482;4.264;2023-05-07T02:47:07;13.00;;;9.23;;
49592;SDS011;35499;51.482;4.264;2023-05-07T02:49:33;15.07;;;10.40;;
49592;SDS011;35499;51.482;4.264;2023-05-07T02:51:58;14.17;;;10.43;;
49592;SDS011;35499;51.482;4.264;2023-05-07T02:54:24;15.57;;;10.47;;
49592;SDS011;35499;51.482;4.264;2023-05-07T02:56:49;13.63;;;9.63;;
49592;SDS011;35499;51.482;4.264;2023-05-07T02:59:15;14.38;;;11.35;;
49592;SDS011;35499;51.482;4.264;2023-05-07T03:01:40;14.73;;;9.10;;
49592;SDS011;35499;51.482;4.264;2023-05-07T03:04:06;15.65;;;10.93;;
49592;SDS011;35499;51.482;4.264;2023-05-07T03:06:31;15.53;;;11.00;;
49592;SDS011;35499;51.482;4.264;2023-05-07T03:08:57;16.50;;;9.93;;
49592;SDS011;35499;51.482;4.264;2023-05-07T03:11:22;15.30;;;11.00;;
49592;SDS011;35499;51.482;4.264;2023-05-07T03:13:47;15.80;;;10.75;;
49592;SDS011;35499;51.482;4.264;2023-05-07T03:16:14;14.32;;;9.50;;
49592;SDS011;35499;51.482;4.264;2023-05-07T03:18:40;11.43;;;8.18;;
49592;SDS011;35499;51.482;4.264;2023-05-07T03:21:05;13.77;;;9.47;;
49592;SDS011;35499;51.482;4.264;2023-05-07T03:23:30;17.07;;;10.20;;
49592;SDS011;35499;51.482;4.264;2023-05-07T03:25:56;15.23;;;9.53;;
49592;SDS011;35499;51.482;4.264;2023-05-07T03:28:21;15.07;;;9.83;;
49592;SDS011;35499;51.482;4.264;2023-05-07T03:30:46;15.23;;;9.13;;
49592;SDS011;35499;51.482;4.264;2023-05-07T03:33:12;15.17;;;10.87;;
49592;SDS011;35499;51.482;4.264;2023-05-07T03:35:37;14.10;;;10.10;;
49592;SDS011;35499;51.482;4.264;2023-05-07T03:38:02;16.13;;;9.53;;
49592;SDS011;35499;51.482;4.264;2023-05-07T03:40:27;15.73;;;10.77;;
49592;SDS011;35499;51.482;4.264;2023-05-07T03:42:53;16.63;;;9.70;;
49592;SDS011;35499;51.482;4.264;2023-05-07T03:45:18;17.10;;;11.80;;
49592;SDS011;35499;51.482;4.264;2023-05-07T03:47:43;11.00;;;5.73;;
49592;SDS011;35499;51.482;4.264;2023-05-07T03:50:09;11.05;;;6.63;;
49592;SDS011;35499;51.482;4.264;2023-05-07T03:52:35;11.32;;;6.95;;
49592;SDS011;35499;51.482;4.264;2023-05-07T03:55:00;11.60;;;6.70;;
49592;SDS011;35499;51.482;4.264;2023-05-07T03:57:26;9.70;;;6.70;;
49592;SDS011;35499;51.482;4.264;2023-05-07T03:59:51;12.40;;;8.23;;
49592;SDS011;35499;51.482;4.264;2023-05-07T04:02:16;11.37;;;6.53;;
49592;SDS011;35499;51.482;4.264;2023-05-07T04:04:41;14.00;;;9.90;;
49592;SDS011;35499;51.482;4.264;2023-05-07T04:07:07;14.40;;;9.03;;
49592;SDS011;35499;51.482;4.264;2023-05-07T04:09:32;11.20;;;6.60;;
49592;SDS011;35499;51.482;4.264;2023-05-07T04:11:57;11.80;;;7.67;;
49592;SDS011;35499;51.482;4.264;2023-05-07T04:14:22;15.43;;;9.73;;
49592;SDS011;35499;51.482;4.264;2023-05-07T04:16:48;14.73;;;8.13;;
49592;SDS011;35499;51.482;4.264;2023-05-07T04:19:13;9.03;;;6.30;;
49592;SDS011;35499;51.482;4.264;2023-05-07T04:21:38;11.47;;;8.00;;
49592;SDS011;35499;51.482;4.264;2023-05-07T04:24:04;11.43;;;7.20;;
49592;SDS011;35499;51.482;4.264;2023-05-07T04:26:30;11.75;;;8.18;;
49592;SDS011;35499;51.482;4.264;2023-05-07T04:28:55;11.95;;;7.60;;
49592;SDS011;35499;51.482;4.264;2023-05-07T04:31:20;16.07;;;8.20;;
49592;SDS011;35499;51.482;4.264;2023-05-07T04:33:46;11.75;;;8.18;;
49592;SDS011;35499;51.482;4.264;2023-05-07T04:36:11;15.30;;;8.07;;
49592;SDS011;35499;51.482;4.264;2023-05-07T04:38:36;11.63;;;7.47;;
49592;SDS011;35499;51.482;4.264;2023-05-07T04:41:02;10.68;;;7.82;;
49592;SDS011;35499;51.482;4.264;2023-05-07T04:43:29;11.75;;;8.68;;
49592;SDS011;35499;51.482;4.264;2023-05-07T04:45:54;14.48;;;8.18;;
49592;SDS011;35499;51.482;4.264;2023-05-07T04:48:19;12.07;;;6.93;;
49592;SDS011;35499;51.482;4.264;2023-05-07T04:50:48;14.38;;;7.32;;
49592;SDS011;35499;51.482;4.264;2023-05-07T04:53:16;13.65;;;6.80;;
49592;SDS011;35499;51.482;4.264;2023-05-07T04:55:43;11.27;;;8.02;;
49592;SDS011;35499;51.482;4.264;2023-05-07T04:58:08;12.48;;;7.25;;
49592;SDS011;35499;51.482;4.264;2023-05-07T05:00:34;9.43;;;6.65;;
49592;SDS011;35499;51.482;4.264;2023-05-07T05:02:59;11.75;;;6.07;;
49592;SDS011;35499;51.482;4.264;2023-05-07T05:05:25;12.23;;;7.23;;
49592;SDS011;35499;51.482;4.264;2023-05-07T05:07:50;10.27;;;6.10;;
49592;SDS011;35499;51.482;4.264;2023-05-07T05:10:16;11.15;;;6.90;;
49592;SDS011;35499;51.482;4.264;2023-05-07T05:12:42;9.88;;;6.30;;
49592;SDS011;35499;51.482;4.264;2023-05-07T05:15:08;10.32;;;6.05;;
49592;SDS011;35499;51.482;4.264;2023-05-07T05:17:35;11.35;;;7.10;;
49592;SDS011;35499;51.482;4.264;2023-05-07T05:20:01;11.70;;;6.13;;
49592;SDS011;35499;51.482;4.264;2023-05-07T05:22:27;9.43;;;5.53;;
49592;SDS011;35499;51.482;4.264;2023-05-07T05:24:54;10.57;;;6.55;;
49592;SDS011;35499;51.482;4.264;2023-05-07T05:27:20;10.90;;;7.33;;
49592;SDS011;35499;51.482;4.264;2023-05-07T05:29:45;12.83;;;7.03;;
49592;SDS011;35499;51.482;4.264;2023-05-07T05:32:10;11.93;;;7.40;;
49592;SDS011;35499;51.482;4.264;2023-05-07T05:34:35;12.43;;;7.53;;
49592;SDS011;35499;51.482;4.264;2023-05-07T05:37:01;11.00;;;7.10;;
49592;SDS011;35499;51.482;4.264;2023-05-07T05:39:26;10.98;;;7.03;;
49592;SDS011;35499;51.482;4.264;2023-05-07T05:41:51;12.32;;;6.95;;
49592;SDS011;35499;51.482;4.264;2023-05-07T05:44:17;12.73;;;7.30;;
49592;SDS011;35499;51.482;4.264;2023-05-07T05:46:42;11.93;;;7.43;;
49592;SDS011;35499;51.482;4.264;2023-05-07T05:49:07;14.38;;;9.40;;
49592;SDS011;35499;51.482;4.264;2023-05-07T05:51:33;12.23;;;8.63;;
49592;SDS011;35499;51.482;4.264;2023-05-07T05:53:58;12.43;;;8.33;;
49592;SDS011;35499;51.482;4.264;2023-05-07T05:56:24;13.68;;;8.15;;
49592;SDS011;35499;51.482;4.264;2023-05-07T05:58:49;15.85;;;8.77;;
49592;SDS011;35499;51.482;4.264;2023-05-07T06:01:14;12.35;;;8.35;;
49592;SDS011;35499;51.482;4.264;2023-05-07T06:03:40;12.57;;;8.37;;
49592;SDS011;35499;51.482;4.264;2023-05-07T06:06:05;11.63;;;7.83;;
49592;SDS011;35499;51.482;4.264;2023-05-07T06:08:30;11.85;;;8.63;;
49592;SDS011;35499;51.482;4.264;2023-05-07T06:10:56;11.43;;;7.65;;
49592;SDS011;35499;51.482;4.264;2023-05-07T06:13:22;10.65;;;7.57;;
49592;SDS011;35499;51.482;4.264;2023-05-07T06:15:48;12.85;;;6.43;;
49592;SDS011;35499;51.482;4.264;2023-05-07T06:18:14;13.45;;;7.93;;
49592;SDS011;35499;51.482;4.264;2023-05-07T06:20:39;12.03;;;8.03;;
49592;SDS011;35499;51.482;4.264;2023-05-07T06:23:04;10.88;;;7.47;;
49592;SDS011;35499;51.482;4.264;2023-05-07T06:25:30;10.87;;;7.13;;
49592;SDS011;35499;51.482;4.264;2023-05-07T06:27:55;11.50;;;8.13;;
49592;SDS011;35499;51.482;4.264;2023-05-07T06:30:20;13.83;;;8.70;;
49592;SDS011;35499;51.482;4.264;2023-05-07T06:32:46;11.47;;;7.30;;
49592;SDS011;35499;51.482;4.264;2023-05-07T06:35:11;12.93;;;8.77;;
49592;SDS011;35499;51.482;4.264;2023-05-07T06:37:36;13.67;;;9.30;;
49592;SDS011;35499;51.482;4.264;2023-05-07T06:40:03;14.00;;;7.28;;
49592;SDS011;35499;51.482;4.264;2023-05-07T06:42:30;12.25;;;8.85;;
49592;SDS011;35499;51.482;4.264;2023-05-07T06:44:55;13.27;;;7.47;;
49592;SDS011;35499;51.482;4.264;2023-05-07T06:47:20;11.60;;;8.20;;
49592;SDS011;35499;51.482;4.264;2023-05-07T06:49:46;11.07;;;8.40;;
49592;SDS011;35499;51.482;4.264;2023-05-07T06:52:11;12.43;;;9.10;;
49592;SDS011;35499;51.482;4.264;2023-05-07T06:54:36;11.33;;;7.17;;
49592;SDS011;35499;51.482;4.264;2023-05-07T06:57:02;10.57;;;7.37;;
49592;SDS011;35499;51.482;4.264;2023-05-07T06:59:27;9.80;;;7.57;;
49592;SDS011;35499;51.482;4.264;2023-05-07T07:01:52;10.57;;;7.90;;
49592;SDS011;35499;51.482;4.264;2023-05-07T07:04:17;11.80;;;8.43;;
49592;SDS011;35499;51.482;4.264;2023-05-07T07:06:43;13.63;;;6.60;;
49592;SDS011;35499;51.482;4.264;2023-05-07T07:09:08;13.27;;;7.88;;
49592;SDS011;35499;51.482;4.264;2023-05-07T07:11:33;9.90;;;7.70;;
49592;SDS011;35499;51.482;4.264;2023-05-07T07:13:59;10.23;;;7.43;;
49592;SDS011;35499;51.482;4.264;2023-05-07T07:16:24;10.40;;;7.40;;
49592;SDS011;35499;51.482;4.264;2023-05-07T07:18:49;13.90;;;7.07;;
49592;SDS011;35499;51.482;4.264;2023-05-07T07:21:15;11.02;;;7.88;;
49592;SDS011;35499;51.482;4.264;2023-05-07T07:23:40;10.45;;;7.43;;
49592;SDS011;35499;51.482;4.264;2023-05-07T07:26:06;13.73;;;8.43;;
49592;SDS011;35499;51.482;4.264;2023-05-07T07:28:31;12.23;;;7.47;;
49592;SDS011;35499;51.482;4.264;2023-05-07T07:30:57;10.02;;;7.18;;
49592;SDS011;35499;51.482;4.264;2023-05-07T07:33:22;10.07;;;7.17;;
49592;SDS011;35499;51.482;4.264;2023-05-07T07:35:47;11.13;;;7.33;;
49592;SDS011;35499;51.482;4.264;2023-05-07T07:38:12;11.87;;;8.57;;
49592;SDS011;35499;51.482;4.264;2023-05-07T07:40:38;10.90;;;8.03;;
49592;SDS011;35499;51.482;4.264;2023-05-07T07:43:04;11.25;;;7.80;;
49592;SDS011;35499;51.482;4.264;2023-05-07T07:45:29;11.52;;;8.25;;
49592;SDS011;35499;51.482;4.264;2023-05-07T07:47:55;11.77;;;7.40;;
49592;SDS011;35499;51.482;4.264;2023-05-07T07:50:20;15.25;;;7.65;;
49592;SDS011;35499;51.482;4.264;2023-05-07T07:52:45;12.05;;;7.38;;
49592;SDS011;35499;51.482;4.264;2023-05-07T07:55:11;12.20;;;8.10;;
49592;SDS011;35499;51.482;4.264;2023-05-07T07:57:37;11.80;;;7.93;;
49592;SDS011;35499;51.482;4.264;2023-05-07T08:00:02;10.25;;;8.02;;
49592;SDS011;35499;51.482;4.264;2023-05-07T08:02:28;11.40;;;7.78;;
49592;SDS011;35499;51.482;4.264;2023-05-07T08:04:53;12.73;;;8.55;;
49592;SDS011;35499;51.482;4.264;2023-05-07T08:07:18;13.27;;;8.03;;
49592;SDS011;35499;51.482;4.264;2023-05-07T08:09:45;11.18;;;7.53;;
49592;SDS011;35499;51.482;4.264;2023-05-07T08:12:11;10.30;;;8.40;;
49592;SDS011;35499;51.482;4.264;2023-05-07T08:14:37;11.38;;;8.13;;
49592;SDS011;35499;51.482;4.264;2023-05-07T08:17:02;10.30;;;7.55;;
49592;SDS011;35499;51.482;4.264;2023-05-07T08:19:28;10.98;;;6.93;;
49592;SDS011;35499;51.482;4.264;2023-05-07T08:21:53;9.52;;;7.65;;
49592;SDS011;35499;51.482;4.264;2023-05-07T08:24:18;10.63;;;5.20;;
49592;SDS011;35499;51.482;4.264;2023-05-07T08:26:44;9.60;;;6.10;;
49592;SDS011;35499;51.482;4.264;2023-05-07T08:29:10;9.10;;;7.05;;
49592;SDS011;35499;51.482;4.264;2023-05-07T08:31:35;8.02;;;5.80;;
49592;SDS011;35499;51.482;4.264;2023-05-07T08:34:01;9.37;;;6.93;;
49592;SDS011;35499;51.482;4.264;2023-05-07T08:36:26;9.27;;;7.10;;
49592;SDS011;35499;51.482;4.264;2023-05-07T08:38:52;10.03;;;7.20;;
49592;SDS011;35499;51.482;4.264;2023-05-07T08:41:17;12.40;;;7.15;;
49592;SDS011;35499;51.482;4.264;2023-05-07T08:43:45;9.50;;;7.07;;
49592;SDS011;35499;51.482;4.264;2023-05-07T08:46:13;8.30;;;5.95;;
49592;SDS011;35499;51.482;4.264;2023-05-07T08:48:44;8.85;;;5.40;;
49592;SDS011;35499;51.482;4.264;2023-05-07T08:51:13;10.85;;;4.45;;
49592;SDS011;35499;51.482;4.264;2023-05-07T08:56:09;7.05;;;4.82;;
49592;SDS011;35499;51.482;4.264;2023-05-07T08:58:34;8.02;;;4.18;;
49592;SDS011;35499;51.482;4.264;2023-05-07T09:04:33;8.63;;;4.70;;
49592;SDS011;35499;51.482;4.264;2023-05-07T09:06:58;12.03;;;5.53;;
49592;SDS011;35499;51.482;4.264;2023-05-07T09:09:30;12.85;;;5.80;;
49592;SDS011;35499;51.482;4.264;2023-05-07T09:11:57;9.50;;;6.28;;
49592;SDS011;35499;51.482;4.264;2023-05-07T09:14:27;12.65;;;4.97;;
49592;SDS011;35499;51.482;4.264;2023-05-07T09:16:52;13.27;;;7.00;;
49592;SDS011;35499;51.482;4.264;2023-05-07T09:19:22;12.00;;;6.15;;
49592;SDS011;35499;51.482;4.264;2023-05-07T09:24:29;17.85;;;7.28;;
49592;SDS011;35499;51.482;4.264;2023-05-07T09:26:59;14.95;;;6.70;;
49592;SDS011;35499;51.482;4.264;2023-05-07T09:29:26;15.68;;;7.40;;
49592;SDS011;35499;51.482;4.264;2023-05-07T09:31:53;13.60;;;6.15;;
49592;SDS011;35499;51.482;4.264;2023-05-07T09:34:19;13.55;;;6.55;;
49592;SDS011;35499;51.482;4.264;2023-05-07T09:36:44;11.50;;;5.80;;
49592;SDS011;35499;51.482;4.264;2023-05-07T09:39:10;17.08;;;6.22;;
49592;SDS011;35499;51.482;4.264;2023-05-07T09:41:42;8.05;;;3.80;;
49592;SDS011;35499;51.482;4.264;2023-05-07T09:44:09;12.75;;;5.03;;
49592;SDS011;35499;51.482;4.264;2023-05-07T09:46:34;9.48;;;5.03;;
49592;SDS011;35499;51.482;4.264;2023-05-07T09:49:02;10.85;;;4.65;;
49592;SDS011;35499;51.482;4.264;2023-05-07T09:51:41;11.50;;;5.53;;
49592;SDS011;35499;51.482;4.264;2023-05-07T09:54:10;9.55;;;5.20;;
49592;SDS011;35499;51.482;4.264;2023-05-07T09:56:36;12.15;;;4.85;;
49592;SDS011;35499;51.482;4.264;2023-05-07T09:59:03;12.77;;;4.53;;
49592;SDS011;35499;51.482;4.264;2023-05-07T10:01:29;14.20;;;5.20;;
49592;SDS011;35499;51.482;4.264;2023-05-07T10:03:56;12.93;;;4.50;;
49592;SDS011;35499;51.482;4.264;2023-05-07T10:06:24;9.40;;;4.70;;
49592;SDS011;35499;51.482;4.264;2023-05-07T10:08:50;17.70;;;4.53;;
49592;SDS011;35499;51.482;4.264;2023-05-07T10:11:17;13.75;;;4.85;;
49592;SDS011;35499;51.482;4.264;2023-05-07T10:13:43;10.25;;;4.30;;
49592;SDS011;35499;51.482;4.264;2023-05-07T10:16:09;11.48;;;5.85;;
49592;SDS011;35499;51.482;4.264;2023-05-07T10:18:34;11.35;;;4.75;;
49592;SDS011;35499;51.482;4.264;2023-05-07T10:21:02;14.70;;;5.50;;
49592;SDS011;35499;51.482;4.264;2023-05-07T10:23:29;10.93;;;5.03;;
49592;SDS011;35499;51.482;4.264;2023-05-07T10:25:56;10.90;;;4.95;;
49592;SDS011;35499;51.482;4.264;2023-05-07T10:28:23;14.70;;;5.18;;
49592;SDS011;35499;51.482;4.264;2023-05-07T10:33:22;12.88;;;4.38;;
49592;SDS011;35499;51.482;4.264;2023-05-07T10:35:50;14.45;;;5.05;;
49592;SDS011;35499;51.482;4.264;2023-05-07T10:38:16;15.80;;;5.10;;
49592;SDS011;35499;51.482;4.264;2023-05-07T10:40:41;14.48;;;4.97;;
49592;SDS011;35499;51.482;4.264;2023-05-07T10:43:07;9.32;;;4.22;;
49592;SDS011;35499;51.482;4.264;2023-05-07T10:45:32;7.40;;;2.78;;
49592;SDS011;35499;51.482;4.264;2023-05-07T10:48:11;10.45;;;3.60;;
49592;SDS011;35499;51.482;4.264;2023-05-07T10:50:41;4.43;;;2.50;;
49592;SDS011;35499;51.482;4.264;2023-05-07T10:55:42;8.75;;;3.38;;
49592;SDS011;35499;51.482;4.264;2023-05-07T11:00:50;9.95;;;4.05;;
49592;SDS011;35499;51.482;4.264;2023-05-07T11:05:41;6.87;;;3.63;;
49592;SDS011;35499;51.482;4.264;2023-05-07T11:08:08;9.35;;;3.38;;
49592;SDS011;35499;51.482;4.264;2023-05-07T11:10:53;6.72;;;3.25;;
49592;SDS011;35499;51.482;4.264;2023-05-07T11:16:16;9.07;;;4.47;;
49592;SDS011;35499;51.482;4.264;2023-05-07T11:18:46;10.60;;;4.70;;
49592;SDS011;35499;51.482;4.264;2023-05-07T11:21:14;7.35;;;2.75;;
49592;SDS011;35499;51.482;4.264;2023-05-07T11:23:57;5.72;;;2.05;;
49592;SDS011;35499;51.482;4.264;2023-05-07T11:26:23;5.10;;;2.30;;
49592;SDS011;35499;51.482;4.264;2023-05-07T11:31:17;6.80;;;2.35;;
49592;SDS011;35499;51.482;4.264;2023-05-07T11:33:46;6.07;;;2.47;;
49592;SDS011;35499;51.482;4.264;2023-05-07T11:36:11;7.20;;;2.42;;
49592;SDS011;35499;51.482;4.264;2023-05-07T11:38:37;8.70;;;3.28;;
49592;SDS011;35499;51.482;4.264;2023-05-07T11:41:03;8.18;;;2.88;;
49592;SDS011;35499;51.482;4.264;2023-05-07T11:45:58;10.88;;;4.53;;
49592;SDS011;35499;51.482;4.264;2023-05-07T11:48:30;11.32;;;4.28;;
49592;SDS011;35499;51.482;4.264;2023-05-07T11:53:36;11.18;;;5.22;;
49592;SDS011;35499;51.482;4.264;2023-05-07T11:56:09;12.55;;;6.10;;
49592;SDS011;35499;51.482;4.264;2023-05-07T11:58:36;12.88;;;4.63;;
49592;SDS011;35499;51.482;4.264;2023-05-07T12:01:01;16.35;;;7.88;;
49592;SDS011;35499;51.482;4.264;2023-05-07T12:03:27;19.63;;;8.68;;
49592;SDS011;35499;51.482;4.264;2023-05-07T12:05:53;17.15;;;7.05;;
49592;SDS011;35499;51.482;4.264;2023-05-07T12:08:19;19.10;;;8.38;;
49592;SDS011;35499;51.482;4.264;2023-05-07T12:10:46;18.73;;;7.10;;
49592;SDS011;35499;51.482;4.264;2023-05-07T12:15:46;23.73;;;8.98;;
49592;SDS011;35499;51.482;4.264;2023-05-07T12:18:15;27.10;;;9.93;;
49592;SDS011;35499;51.482;4.264;2023-05-07T12:20:40;22.95;;;8.65;;
49592;SDS011;35499;51.482;4.264;2023-05-07T12:23:06;24.38;;;10.25;;
49592;SDS011;35499;51.482;4.264;2023-05-07T12:25:32;21.80;;;9.13;;
49592;SDS011;35499;51.482;4.264;2023-05-07T12:28:03;19.35;;;8.63;;
49592;SDS011;35499;51.482;4.264;2023-05-07T12:30:32;19.23;;;9.07;;
49592;SDS011;35499;51.482;4.264;2023-05-07T12:33:02;18.45;;;7.38;;
49592;SDS011;35499;51.482;4.264;2023-05-07T12:35:31;18.35;;;7.78;;
49592;SDS011;35499;51.482;4.264;2023-05-07T12:38:00;14.75;;;6.45;;
49592;SDS011;35499;51.482;4.264;2023-05-07T12:40:35;13.60;;;6.80;;
49592;SDS011;35499;51.482;4.264;2023-05-07T12:43:02;12.23;;;6.10;;
49592;SDS011;35499;51.482;4.264;2023-05-07T12:45:27;12.07;;;4.87;;
49592;SDS011;35499;51.482;4.264;2023-05-07T12:47:53;11.38;;;4.72;;
49592;SDS011;35499;51.482;4.264;2023-05-07T12:50:18;6.80;;;2.73;;
49592;SDS011;35499;51.482;4.264;2023-05-07T12:52:45;9.50;;;3.58;;
49592;SDS011;35499;51.482;4.264;2023-05-07T12:55:12;11.13;;;2.97;;
49592;SDS011;35499;51.482;4.264;2023-05-07T12:57:47;7.35;;;2.97;;
49592;SDS011;35499;51.482;4.264;2023-05-07T13:00:14;6.82;;;2.63;;
49592;SDS011;35499;51.482;4.264;2023-05-07T13:02:40;8.43;;;4.05;;
49592;SDS011;35499;51.482;4.264;2023-05-07T13:05:09;17.45;;;6.93;;
49592;SDS011;35499;51.482;4.264;2023-05-07T13:07:34;18.42;;;8.20;;
49592;SDS011;35499;51.482;4.264;2023-05-07T13:10:00;24.95;;;9.23;;
49592;SDS011;35499;51.482;4.264;2023-05-07T13:12:25;24.98;;;10.38;;
49592;SDS011;35499;51.482;4.264;2023-05-07T13:14:50;27.63;;;10.07;;
49592;SDS011;35499;51.482;4.264;2023-05-07T13:17:15;31.17;;;11.47;;
49592;SDS011;35499;51.482;4.264;2023-05-07T13:19:41;26.17;;;10.53;;
49592;SDS011;35499;51.482;4.264;2023-05-07T13:22:06;27.40;;;9.57;;
49592;SDS011;35499;51.482;4.264;2023-05-07T13:24:31;30.87;;;11.37;;
49592;SDS011;35499;51.482;4.264;2023-05-07T13:26:57;24.87;;;10.00;;
49592;SDS011;35499;51.482;4.264;2023-05-07T13:29:22;26.73;;;10.20;;
49592;SDS011;35499;51.482;4.264;2023-05-07T13:34:20;27.20;;;9.57;;
49592;SDS011;35499;51.482;4.264;2023-05-07T13:36:45;26.85;;;9.45;;
49592;SDS011;35499;51.482;4.264;2023-05-07T13:39:11;24.20;;;10.20;;
49592;SDS011;35499;51.482;4.264;2023-05-07T13:41:36;19.48;;;8.77;;
49592;SDS011;35499;51.482;4.264;2023-05-07T13:44:01;18.83;;;6.80;;
49592;SDS011;35499;51.482;4.264;2023-05-07T13:46:27;12.03;;;6.00;;
49592;SDS011;35499;51.482;4.264;2023-05-07T13:48:52;16.13;;;7.00;;
49592;SDS011;35499;51.482;4.264;2023-05-07T13:51:17;21.00;;;7.33;;
49592;SDS011;35499;51.482;4.264;2023-05-07T13:53:43;18.58;;;7.55;;
49592;SDS011;35499;51.482;4.264;2023-05-07T13:56:08;13.97;;;5.57;;
49592;SDS011;35499;51.482;4.264;2023-05-07T13:58:33;14.27;;;5.80;;
49592;SDS011;35499;51.482;4.264;2023-05-07T14:00:59;14.80;;;5.55;;
49592;SDS011;35499;51.482;4.264;2023-05-07T14:03:24;9.73;;;3.38;;
49592;SDS011;35499;51.482;4.264;2023-05-07T14:05:49;11.07;;;3.60;;
49592;SDS011;35499;51.482;4.264;2023-05-07T14:08:15;7.17;;;3.07;;
49592;SDS011;35499;51.482;4.264;2023-05-07T14:10:40;9.48;;;3.83;;
49592;SDS011;35499;51.482;4.264;2023-05-07T14:13:05;6.53;;;2.20;;
49592;SDS011;35499;51.482;4.264;2023-05-07T14:15:31;6.28;;;2.75;;
49592;SDS011;35499;51.482;4.264;2023-05-07T14:20:24;9.65;;;2.60;;
49592;SDS011;35499;51.482;4.264;2023-05-07T14:22:49;4.63;;;1.73;;
49592;SDS011;35499;51.482;4.264;2023-05-07T14:25:15;6.15;;;2.72;;
49592;SDS011;35499;51.482;4.264;2023-05-07T14:27:40;4.30;;;1.45;;
49592;SDS011;35499;51.482;4.264;2023-05-07T14:30:06;4.30;;;1.50;;
49592;SDS011;35499;51.482;4.264;2023-05-07T14:32:32;6.53;;;1.75;;
49592;SDS011;35499;51.482;4.264;2023-05-07T14:34:57;5.22;;;1.10;;
49592;SDS011;35499;51.482;4.264;2023-05-07T14:37:23;5.07;;;1.60;;
49592;SDS011;35499;51.482;4.264;2023-05-07T14:39:49;3.10;;;1.33;;
49592;SDS011;35499;51.482;4.264;2023-05-07T14:42:14;3.00;;;0.98;;
49592;SDS011;35499;51.482;4.264;2023-05-07T14:44:39;2.93;;;0.87;;
49592;SDS011;35499;51.482;4.264;2023-05-07T14:47:06;3.00;;;0.82;;
49592;SDS011;35499;51.482;4.264;2023-05-07T14:49:32;4.07;;;1.35;;
49592;SDS011;35499;51.482;4.264;2023-05-07T14:51:58;5.00;;;1.05;;
49592;SDS011;35499;51.482;4.264;2023-05-07T14:54:25;4.10;;;0.75;;
49592;SDS011;35499;51.482;4.264;2023-05-07T14:56:50;3.77;;;1.00;;
49592;SDS011;35499;51.482;4.264;2023-05-07T14:59:15;2.15;;;0.77;;
49592;SDS011;35499;51.482;4.264;2023-05-07T15:01:43;3.38;;;1.23;;
49592;SDS011;35499;51.482;4.264;2023-05-07T15:04:10;2.58;;;1.20;;
49592;SDS011;35499;51.482;4.264;2023-05-07T15:06:36;2.95;;;1.05;;
49592;SDS011;35499;51.482;4.264;2023-05-07T15:09:01;3.53;;;1.48;;
49592;SDS011;35499;51.482;4.264;2023-05-07T15:11:27;6.43;;;1.40;;
49592;SDS011;35499;51.482;4.264;2023-05-07T15:13:53;4.53;;;0.90;;
49592;SDS011;35499;51.482;4.264;2023-05-07T15:16:18;2.67;;;0.87;;
49592;SDS011;35499;51.482;4.264;2023-05-07T15:18:43;3.80;;;0.90;;